createdAt,value
2023-08-11T00:00:31.497Z,10.09
2023-08-11T00:03:31.553Z,10.19
2023-08-11T00:06:31.523Z,10.12
2023-08-11T00:09:31.528Z,10.14
2023-08-11T00:12:31.531Z,10.19
2023-08-11T00:15:31.539Z,10.16
2023-08-11T00:18:31.569Z,10.19
2023-08-11T00:21:31.585Z,10.23
2023-08-11T00:24:31.582Z,10.19
2023-08-11T00:27:31.588Z,10.26
2023-08-11T00:30:31.611Z,10.23
2023-08-11T00:33:31.618Z,10.29
2023-08-11T00:36:31.619Z,10.29
2023-08-11T00:39:31.631Z,10.27
2023-08-11T00:42:31.641Z,10.33
2023-08-11T00:45:31.676Z,10.35
2023-08-11T00:48:31.672Z,10.36
2023-08-11T00:51:31.670Z,10.43
2023-08-11T00:54:31.677Z,10.43
2023-08-11T00:57:31.690Z,10.42
2023-08-11T01:00:31.741Z,10.47
2023-08-11T01:03:31.718Z,10.47
2023-08-11T01:06:31.704Z,10.47
2023-08-11T01:09:31.723Z,10.51
2023-08-11T01:12:31.721Z,10.54
2023-08-11T01:15:31.730Z,10.52
2023-08-11T01:18:31.758Z,10.59
2023-08-11T01:21:31.750Z,10.59
2023-08-11T01:24:31.759Z,10.55
2023-08-11T01:27:31.765Z,10.55
2023-08-11T01:30:31.790Z,10.59
2023-08-11T01:33:31.785Z,10.56
2023-08-11T01:36:31.775Z,10.54
2023-08-11T01:39:31.778Z,10.6
2023-08-11T01:42:33.822Z,10.59
2023-08-11T01:45:31.790Z,10.65
2023-08-11T01:48:31.830Z,10.65
2023-08-11T01:51:31.797Z,10.64
2023-08-11T01:54:31.802Z,10.69
2023-08-11T01:57:33.453Z,10.64
2023-08-11T02:00:31.812Z,10.61
2023-08-11T02:03:31.921Z,10.63
2023-08-11T02:06:31.820Z,10.78
2023-08-11T02:09:31.836Z,10.89
2023-08-11T02:12:31.836Z,10.94
2023-08-11T02:15:31.825Z,10.99
2023-08-11T02:18:31.852Z,11.03
2023-08-11T02:21:31.835Z,11.02
2023-08-11T02:24:31.850Z,10.98
2023-08-11T02:27:31.848Z,10.82
2023-08-11T02:30:31.858Z,10.85
2023-08-11T02:33:31.869Z,10.74
2023-08-11T02:36:31.881Z,10.74
2023-08-11T02:39:31.871Z,10.78
2023-08-11T02:42:31.872Z,10.75
2023-08-11T02:45:31.926Z,10.71
2023-08-11T02:48:31.883Z,10.76
2023-08-11T02:51:31.877Z,10.86
2023-08-11T02:54:31.892Z,10.82
2023-08-11T02:57:31.884Z,10.85
2023-08-11T03:00:31.890Z,10.85
2023-08-11T03:03:31.993Z,10.86
2023-08-11T03:06:31.896Z,10.87
2023-08-11T03:09:31.904Z,10.9
2023-08-11T03:12:31.921Z,10.93
2023-08-11T03:15:31.933Z,10.89
2023-08-11T03:18:31.924Z,10.87
2023-08-11T03:21:31.925Z,10.86
2023-08-11T03:24:31.930Z,10.82
2023-08-11T03:27:31.936Z,10.87
2023-08-11T03:30:31.939Z,10.86
2023-08-11T03:33:31.998Z,10.87
2023-08-11T03:36:31.960Z,10.87
2023-08-11T03:39:31.959Z,10.87
2023-08-11T03:42:31.972Z,10.87
2023-08-11T03:45:31.966Z,10.91
2023-08-11T03:48:31.967Z,10.94
2023-08-11T03:51:32.001Z,10.97
2023-08-11T03:54:43.738Z,10.97
2023-08-11T03:57:31.982Z,10.95
2023-08-11T04:00:31.986Z,10.94
2023-08-11T04:03:32.045Z,10.98
2023-08-11T04:06:32.002Z,10.98
2023-08-11T04:09:32.005Z,10.97
2023-08-11T04:12:32.013Z,10.98
2023-08-11T04:15:32.020Z,11.05
2023-08-11T04:18:32.041Z,11.05
2023-08-11T04:21:32.021Z,11.02
2023-08-11T04:24:32.037Z,11
2023-08-11T04:27:32.032Z,11.07
2023-08-11T04:30:32.036Z,11.04
2023-08-11T04:33:32.039Z,11.04
2023-08-11T04:36:32.048Z,11.08
2023-08-11T04:39:32.042Z,11.14
2023-08-11T04:42:32.048Z,11.1
2023-08-11T04:45:32.050Z,11.08
2023-08-11T04:48:32.059Z,11.15
2023-08-11T04:51:32.061Z,11.11
2023-08-11T04:54:32.065Z,11.11
2023-08-11T04:57:32.066Z,11.18
2023-08-11T05:00:32.079Z,11.2
2023-08-11T05:03:32.122Z,11.19
2023-08-11T05:06:32.085Z,11.16
2023-08-11T05:09:32.092Z,11.15
2023-08-11T05:12:32.092Z,11.17
2023-08-11T05:15:32.102Z,11.2
2023-08-11T05:18:42.053Z,11.23
2023-08-11T05:21:32.113Z,11.2
2023-08-11T05:24:32.112Z,11.25
2023-08-11T05:27:32.121Z,11.29
2023-08-11T05:30:32.128Z,11.26
2023-08-11T05:33:32.131Z,11.3
2023-08-11T05:36:32.147Z,11.3
2023-08-11T05:39:32.147Z,11.34
2023-08-11T05:42:32.150Z,11.3
2023-08-11T05:45:32.150Z,11.32
2023-08-11T05:48:32.154Z,11.35
2023-08-11T05:51:32.174Z,11.32
2023-08-11T05:54:32.148Z,11.34
2023-08-11T05:57:32.169Z,11.39
2023-08-11T06:00:32.184Z,11.46
2023-08-11T06:03:32.233Z,11.42
2023-08-11T06:06:32.178Z,11.44
2023-08-11T06:09:32.183Z,11.46
2023-08-11T06:12:32.184Z,11.47
2023-08-11T06:15:32.188Z,11.51
2023-08-11T06:18:32.194Z,11.58
2023-08-11T06:21:32.194Z,11.55
2023-08-11T06:24:32.196Z,11.62
2023-08-11T06:27:32.204Z,11.64
2023-08-11T06:30:32.211Z,11.57
2023-08-11T06:33:32.215Z,11.64
2023-08-11T06:36:32.224Z,11.68
2023-08-11T06:39:32.221Z,11.65
2023-08-11T06:42:32.513Z,11.8
2023-08-11T06:45:32.252Z,11.79
2023-08-11T06:48:32.220Z,11.74
2023-08-11T06:51:32.241Z,11.76
2023-08-11T06:54:32.230Z,11.69
2023-08-11T06:57:32.276Z,11.76
2023-08-11T07:00:32.250Z,11.6
2023-08-11T07:03:32.326Z,11.58
2023-08-11T07:06:32.254Z,11.66
2023-08-11T07:09:32.259Z,11.7
2023-08-11T07:12:32.261Z,11.75
2023-08-11T07:15:32.261Z,11.85
2023-08-11T07:18:32.272Z,11.84
2023-08-11T07:21:32.274Z,11.87
2023-08-11T07:24:32.275Z,11.89
2023-08-11T07:27:32.268Z,11.92
2023-08-11T07:30:32.261Z,11.9
2023-08-11T07:33:32.306Z,11.94
2023-08-11T07:36:32.289Z,12.06
2023-08-11T07:39:32.296Z,12.06
2023-08-11T07:42:32.287Z,12.06
2023-08-11T07:45:32.310Z,12.05
2023-08-11T07:48:32.306Z,12.21
2023-08-11T07:51:32.307Z,12.19
2023-08-11T07:54:32.354Z,12.25
2023-08-11T07:57:32.313Z,12.22
2023-08-11T08:00:32.315Z,12.58
2023-08-11T08:03:32.347Z,12.78
2023-08-11T08:06:32.317Z,12.84
2023-08-11T08:09:32.308Z,12.95
2023-08-11T08:12:32.314Z,12.9
2023-08-11T08:15:32.327Z,13.05
2023-08-11T08:18:32.336Z,13.18
2023-08-11T08:21:32.320Z,13.15
2023-08-11T08:24:32.397Z,13.3
2023-08-11T08:27:32.335Z,13.14
2023-08-11T08:30:32.328Z,13.24
2023-08-11T08:33:32.352Z,13.6
2023-08-11T08:36:32.351Z,13.45
2023-08-11T08:39:32.352Z,13.28
2023-08-11T08:42:32.361Z,13.38
2023-08-11T08:45:32.385Z,13.29
2023-08-11T08:48:32.375Z,13.4
2023-08-11T08:51:32.407Z,12.94
2023-08-11T08:54:32.405Z,12.84
2023-08-11T08:57:32.414Z,12.82
2023-08-11T09:00:32.424Z,12.61
2023-08-11T09:03:32.518Z,12.66
2023-08-11T09:06:32.448Z,12.65
2023-08-11T09:09:32.440Z,12.5
2023-08-11T09:12:32.473Z,12.47
2023-08-11T09:15:32.483Z,12.41
2023-08-11T09:18:32.492Z,12.53
2023-08-11T09:21:32.469Z,12.59
2023-08-11T09:24:32.484Z,12.64
2023-08-11T09:27:32.515Z,12.51
2023-08-11T09:30:32.733Z,12.53
2023-08-11T09:33:32.489Z,12.58
2023-08-11T09:36:32.495Z,12.64
2023-08-11T09:39:32.504Z,12.54
2023-08-11T09:42:32.502Z,12.53
2023-08-11T09:45:32.603Z,12.59
2023-08-11T09:48:32.507Z,12.68
2023-08-11T09:51:32.530Z,12.95
2023-08-11T09:54:32.508Z,12.78
2023-08-11T09:57:32.521Z,12.85
2023-08-11T10:00:32.522Z,13.31
2023-08-11T10:03:32.635Z,12.99
2023-08-11T10:06:32.549Z,12.92
2023-08-11T10:09:32.542Z,12.96
2023-08-11T10:12:32.542Z,12.98
2023-08-11T10:15:32.571Z,12.96
2023-08-11T10:18:32.552Z,13.13
2023-08-11T10:21:32.558Z,13.19
2023-08-11T10:24:32.576Z,13.13
2023-08-11T10:27:32.559Z,13.05
2023-08-11T10:30:32.566Z,13.1
2023-08-11T10:33:32.581Z,12.97
2023-08-11T10:36:32.577Z,13.04
2023-08-11T10:39:32.586Z,12.99
2023-08-11T10:42:32.594Z,13.15
2023-08-11T10:45:32.598Z,13.29
2023-08-11T10:48:32.601Z,12.97
2023-08-11T10:51:32.617Z,13.44
2023-08-11T10:54:32.633Z,13.01
2023-08-11T10:57:32.615Z,13.07
2023-08-11T11:00:32.635Z,13.06
2023-08-11T11:03:32.631Z,13.03
2023-08-11T11:06:32.633Z,13.27
2023-08-11T11:09:32.644Z,13.14
2023-08-11T11:12:32.647Z,13.05
2023-08-11T11:15:32.655Z,13.19
2023-08-11T11:18:32.650Z,13.11
2023-08-11T11:21:32.660Z,13
2023-08-11T11:24:32.659Z,13.21
2023-08-11T11:27:32.668Z,12.88
2023-08-11T11:30:32.665Z,12.83
2023-08-11T11:33:32.696Z,12.75
2023-08-11T11:36:32.688Z,13.06
2023-08-11T11:39:32.683Z,12.94
2023-08-11T11:42:32.694Z,13.06
2023-08-11T11:45:32.703Z,13.08
2023-08-11T11:48:32.704Z,13.07
2023-08-11T11:51:34.304Z,12.91
2023-08-11T11:54:32.711Z,13.31
2023-08-11T11:57:32.718Z,12.97
2023-08-11T12:00:32.725Z,13.28
2023-08-11T12:03:32.747Z,13.04
2023-08-11T12:06:32.724Z,13.12
2023-08-11T12:09:32.733Z,13.15
2023-08-11T12:12:32.740Z,13.18
2023-08-11T12:15:32.779Z,12.99
2023-08-11T12:18:32.747Z,13.35
2023-08-11T12:21:32.759Z,13.38
2023-08-11T12:24:32.760Z,13.21
2023-08-11T12:27:32.762Z,13.08
2023-08-11T12:30:32.780Z,13.38
2023-08-11T12:33:32.825Z,13.21
2023-08-11T12:36:32.779Z,13.28
2023-08-11T12:39:32.831Z,13.38
2023-08-11T12:42:32.792Z,13.35
2023-08-11T12:45:32.800Z,13.18
2023-08-11T12:48:32.809Z,13.22
2023-08-11T12:51:32.806Z,13.09
2023-08-11T12:54:32.812Z,13.3
2023-08-11T12:57:32.823Z,13.26
2023-08-11T13:00:32.844Z,13.02
2023-08-11T13:03:32.918Z,13.3
2023-08-11T13:06:32.842Z,13.22
2023-08-11T13:09:32.859Z,13.43
2023-08-11T13:12:32.852Z,13.45
2023-08-11T13:15:32.850Z,13.44
2023-08-11T13:18:32.860Z,13.41
2023-08-11T13:21:32.866Z,13.29
2023-08-11T13:24:32.863Z,13.44
2023-08-11T13:27:32.873Z,13.34
2023-08-11T13:30:32.870Z,13.11
2023-08-11T13:33:32.884Z,13.29
2023-08-11T13:36:32.878Z,13.38
2023-08-11T13:39:32.881Z,13.26
2023-08-11T13:42:32.884Z,13.46
2023-08-11T13:45:32.888Z,13.21
2023-08-11T13:48:32.900Z,13.29
2023-08-11T13:51:32.897Z,13.28
2023-08-11T13:54:32.901Z,13.39
2023-08-11T13:57:32.911Z,13.31
2023-08-11T14:00:32.907Z,13.55
2023-08-11T14:03:32.913Z,13.57
2023-08-11T14:06:32.927Z,13.18
2023-08-11T14:09:32.930Z,13.39
2023-08-11T14:12:32.936Z,13.47
2023-08-11T14:15:32.990Z,13.35
2023-08-11T14:18:32.943Z,13.49
2023-08-11T14:21:32.955Z,13.16
2023-08-11T14:24:32.960Z,13.34
2023-08-11T14:27:32.983Z,13.28
2023-08-11T14:30:32.962Z,13.31
2023-08-11T14:33:33.013Z,13.25
2023-08-11T14:36:32.969Z,13.23
2023-08-11T14:39:32.982Z,13.4
2023-08-11T14:42:32.977Z,13.29
2023-08-11T14:45:32.989Z,13.56
2023-08-11T14:48:32.997Z,13.61
2023-08-11T14:51:33.005Z,13.38
2023-08-11T14:54:33.027Z,13.34
2023-08-11T14:57:33.015Z,13.38
2023-08-11T15:00:33.014Z,13.32
2023-08-11T15:03:33.091Z,13.35
2023-08-11T15:06:33.024Z,13.27
2023-08-11T15:09:33.056Z,13.46
2023-08-11T15:12:33.043Z,13.46
2023-08-11T15:15:33.113Z,13.44
2023-08-11T15:18:33.039Z,13.47
2023-08-11T15:21:33.053Z,13.43
2023-08-11T15:24:33.071Z,13.47
2023-08-11T15:27:33.072Z,13.4
2023-08-11T15:30:33.072Z,13.37
2023-08-11T15:33:33.069Z,13.31
2023-08-11T15:36:33.071Z,13.34
2023-08-11T15:39:33.092Z,13.26
2023-08-11T15:42:33.084Z,13.27
2023-08-11T15:45:33.083Z,13.13
2023-08-11T15:48:33.095Z,13.24
2023-08-11T15:51:33.128Z,13.3
2023-08-11T15:54:33.129Z,13.3
2023-08-11T15:57:33.116Z,13.27
2023-08-11T16:00:33.151Z,13.31
2023-08-11T16:03:33.176Z,13.29
2023-08-11T16:06:33.126Z,13.16
2023-08-11T16:09:33.149Z,13.32
2023-08-11T16:12:33.140Z,13.32
2023-08-11T16:15:33.145Z,13.28
2023-08-11T16:18:33.138Z,13.25
2023-08-11T16:21:33.156Z,13.25
2023-08-11T16:24:33.195Z,13.25
2023-08-11T16:27:33.164Z,13.25
2023-08-11T16:30:33.167Z,13.36
2023-08-11T16:33:33.196Z,13.25
2023-08-11T16:36:33.181Z,13.23
2023-08-11T16:39:33.196Z,13.15
2023-08-11T16:42:33.195Z,13.23
2023-08-11T16:45:33.198Z,13.23
2023-08-11T16:48:33.222Z,13.29
2023-08-11T16:51:33.206Z,13.32
2023-08-11T16:54:33.234Z,13.29
2023-08-11T16:57:33.218Z,13.18
2023-08-11T17:00:33.215Z,13.23
2023-08-11T17:03:33.365Z,13.21
2023-08-11T17:06:33.235Z,13.19
2023-08-11T17:09:33.251Z,13.3
2023-08-11T17:12:33.239Z,13.4
2023-08-11T17:15:33.249Z,13.34
2023-08-11T17:18:33.243Z,13.38
2023-08-11T17:21:33.250Z,13.41
2023-08-11T17:24:33.276Z,13.35
2023-08-11T17:27:33.263Z,13.41
2023-08-11T17:30:33.260Z,13.38
2023-08-11T17:33:33.351Z,13.41
2023-08-11T17:36:33.266Z,13.45
2023-08-11T17:39:33.292Z,13.54
2023-08-11T17:42:33.301Z,13.43
2023-08-11T17:45:33.307Z,13.57
2023-08-11T17:48:33.308Z,13.8
2023-08-11T17:51:33.304Z,13.84
2023-08-11T17:54:33.322Z,14.05
2023-08-11T17:57:33.304Z,14.16
2023-08-11T18:00:33.310Z,14.22
2023-08-11T18:03:33.393Z,14.16
2023-08-11T18:06:33.320Z,14.18
2023-08-11T18:09:33.349Z,14.15
2023-08-11T18:12:33.354Z,14.1
2023-08-11T18:15:33.351Z,14.12
2023-08-11T18:18:33.343Z,14.19
2023-08-11T18:21:33.356Z,14.2
2023-08-11T18:24:33.365Z,14.26
2023-08-11T18:27:34.277Z,14.24
2023-08-11T18:30:33.358Z,14.23
2023-08-11T18:33:33.369Z,14.25
2023-08-11T18:36:33.374Z,14.11
2023-08-11T18:39:33.392Z,14.17
2023-08-11T18:42:33.386Z,14.15
2023-08-11T18:45:33.379Z,14.15
2023-08-11T18:48:33.389Z,14.1
2023-08-11T18:51:33.391Z,14.09
2023-08-11T18:54:33.417Z,14.05
2023-08-11T18:57:33.407Z,14.17
2023-08-11T19:00:33.436Z,14.25
2023-08-11T19:03:33.489Z,14.28
2023-08-11T19:06:33.486Z,14.26
2023-08-11T19:09:33.456Z,14.23
2023-08-11T19:12:33.484Z,14.15
2023-08-11T19:15:33.524Z,14.13
2023-08-11T19:18:33.530Z,14.17
2023-08-11T19:21:33.525Z,14.16
2023-08-11T19:24:33.541Z,14.2
2023-08-11T19:27:33.522Z,14.22
2023-08-11T19:30:33.551Z,14.27
2023-08-11T19:33:33.520Z,14.24
2023-08-11T19:36:33.672Z,14.28
2023-08-11T19:39:33.547Z,14.32
2023-08-11T19:42:33.528Z,14.3
2023-08-11T19:45:33.563Z,14.39
2023-08-11T19:51:33.528Z,14.44
2023-08-11T19:54:33.532Z,14.25
2023-08-11T19:57:33.534Z,14.16
2023-08-11T20:00:33.554Z,14.02
2023-08-11T20:03:33.533Z,13.98
2023-08-11T20:06:33.532Z,13.96
2023-08-11T20:09:35.998Z,13.94
2023-08-11T20:12:33.538Z,13.86
2023-08-11T20:15:33.571Z,13.88
2023-08-11T20:18:33.539Z,13.8
2023-08-11T20:21:33.562Z,13.76
2023-08-11T20:24:33.535Z,13.72
2023-08-11T20:27:33.544Z,13.79
2023-08-11T20:30:33.556Z,13.72
2023-08-11T20:33:33.548Z,13.77
2023-08-11T20:36:33.565Z,13.69
2023-08-11T20:39:33.542Z,13.71
2023-08-11T20:42:33.548Z,13.76
2023-08-11T20:45:33.643Z,13.86
2023-08-11T20:48:33.565Z,13.75
2023-08-11T20:51:33.569Z,13.82
2023-08-11T20:54:33.557Z,13.8
2023-08-11T20:57:33.574Z,13.79
2023-08-11T21:00:33.580Z,13.76
2023-08-11T21:03:33.567Z,13.73
2023-08-11T21:06:33.570Z,13.7
2023-08-11T21:09:33.573Z,13.72
2023-08-11T21:12:33.574Z,13.66
2023-08-11T21:15:33.599Z,13.58
2023-08-11T21:18:33.577Z,13.65
2023-08-11T21:21:33.581Z,13.55
2023-08-11T21:24:33.583Z,13.54
2023-08-11T21:27:33.618Z,13.52
2023-08-11T21:30:33.602Z,13.5
2023-08-11T21:33:33.598Z,13.44
2023-08-11T21:36:33.585Z,13.41
2023-08-11T21:39:33.589Z,13.41
2023-08-11T21:42:33.590Z,13.31
2023-08-11T21:45:33.612Z,13.34
2023-08-11T21:48:33.596Z,13.3
2023-08-11T21:51:33.603Z,13.35
2023-08-11T21:54:33.604Z,13.32
2023-08-11T21:57:33.622Z,13.2
2023-08-11T22:00:33.655Z,13.18
2023-08-11T22:03:33.632Z,13.27
2023-08-11T22:06:33.627Z,13.2
2023-08-11T22:09:33.640Z,13.18
2023-08-11T22:12:33.641Z,13.2
2023-08-11T22:15:33.672Z,13.15
2023-08-11T22:18:33.648Z,13.22
2023-08-11T22:21:33.657Z,13.15
2023-08-11T22:24:40.902Z,13.17
2023-08-11T22:27:33.659Z,13.15
2023-08-11T22:30:33.719Z,13.15
2023-08-11T22:33:33.676Z,13.17
2023-08-11T22:36:33.671Z,13.11
2023-08-11T22:39:33.675Z,13.17
2023-08-11T22:42:33.685Z,13.17
2023-08-11T22:45:33.705Z,13.09
2023-08-11T22:48:33.697Z,13.09
2023-08-11T22:51:33.687Z,13.08
2023-08-11T22:54:33.689Z,13.16
2023-08-11T22:57:33.693Z,13.06
2023-08-11T23:00:33.761Z,13.09
2023-08-11T23:03:33.712Z,13.11
2023-08-11T23:06:33.698Z,13.13
2023-08-11T23:09:33.713Z,13.13
2023-08-11T23:12:33.713Z,13.05
2023-08-11T23:15:33.730Z,13.05
2023-08-11T23:18:33.709Z,13.07
2023-08-11T23:21:33.724Z,13
2023-08-11T23:24:33.719Z,13.02
2023-08-11T23:27:33.754Z,13.02
2023-08-11T23:30:33.745Z,12.96
2023-08-11T23:33:33.743Z,12.99
2023-08-11T23:36:33.752Z,12.91
2023-08-11T23:39:33.752Z,12.91
2023-08-11T23:42:33.760Z,12.93
2023-08-11T23:45:33.807Z,12.94
2023-08-11T23:48:33.839Z,12.94
2023-08-11T23:51:33.781Z,12.88
2023-08-11T23:54:33.788Z,12.9
2023-08-11T23:57:33.786Z,12.9
